Time;durP1;ratioP1;P1;durP2;ratioP2;P2;SDS_P1;SDS_P2;PMS_P1;PMS_P2;Temp;Humidity;BMP_temperature;BMP_pressure;BME280_temperature;BME280_humidity;BME280_pressure;Samples;Min_cycle;Max_cycle;Signal;HPM_P1;HPM_P2
2023/01/15 00:01:30;;;;;;;;;;;;;;;13.27;94.95;98862.78;5073820;28;19919;-62
2023/01/15 00:03:56;;;;;;;;;;;;;;;13.27;94.26;98863.63;5072996;28;19916;-62
2023/01/15 00:06:22;;;;;;;;;;;;;;;13.30;94.18;98859.91;5071344;28;19919;-62
2023/01/15 00:08:48;;;;;;;;;;;;;;;13.29;94.02;98856.41;5073631;28;19912;-62
2023/01/15 00:11:13;;;;;;;;;;;;;;;13.31;93.46;98858.97;5069868;28;19928;-62
2023/01/15 00:13:38;;;;;;;;;;;;;;;13.34;93.53;98861.44;5073342;28;19915;-62
2023/01/15 00:16:09;;;;;;;;;;;;;;;13.33;93.36;98855.25;5075920;28;19973;-62
2023/01/15 00:18:35;;;;;;;;;;;;;;;13.43;93.55;98852.84;5061113;28;19923;-62
2023/01/15 00:21:01;;;;;;;;;;;;;;;13.38;93.42;98855.81;5072939;28;19908;-62
2023/01/15 00:28:58;;;;;;;;;;;;;;;13.21;93.40;98811.47;5067993;28;19939;-62
2023/01/15 00:31:24;;;;;;;;;;;;;;;13.43;92.64;98834.16;5062930;28;19924;-63
2023/01/15 00:33:49;;;;;;;;;;;;;;;13.38;92.45;98825.59;5072251;28;19916;-62
2023/01/15 00:36:14;;;;;;;;;;;;;;;13.45;91.60;98829.56;5065713;28;19955;-62
2023/01/15 00:38:39;;;;;;;;;;;;;;;13.47;90.79;98822.31;5072380;28;19916;-62
2023/01/15 00:41:05;;;;;;;;;;;;;;;13.56;90.76;98821.75;5066113;28;19943;-62
2023/01/15 00:43:30;;;;;;;;;;;;;;;13.58;90.53;98825.16;5052528;28;19913;-63
2023/01/15 00:45:55;;;;;;;;;;;;;;;13.59;89.28;98821.56;5052484;28;20389;-63
2023/01/15 00:48:20;;;;;;;;;;;;;;;13.65;88.71;98821.16;5067110;28;19908;-62
2023/01/15 00:50:46;;;;;;;;;;;;;;;13.65;88.67;98821.16;5072925;28;20003;-63
2023/01/15 00:53:11;;;;;;;;;;;;;;;13.67;89.32;98809.44;5065483;28;19924;-63
2023/01/15 00:55:36;;;;;;;;;;;;;;;13.67;88.90;98808.56;5065096;28;19912;-62
2023/01/15 00:58:01;;;;;;;;;;;;;;;13.70;89.30;98808.38;5072459;28;19920;-62
2023/01/15 01:00:27;;;;;;;;;;;;;;;13.68;89.62;98804.94;5055329;28;19919;-62
2023/01/15 01:02:52;;;;;;;;;;;;;;;13.68;89.98;98804.94;5053470;28;19954;-62
2023/01/15 01:05:17;;;;;;;;;;;;;;;13.64;90.44;98806.09;5068902;28;20280;-62
2023/01/15 01:07:42;;;;;;;;;;;;;;;13.63;89.65;98793.66;5072285;28;19931;-62
2023/01/15 01:10:08;;;;;;;;;;;;;;;13.70;90.40;98797.69;5071645;28;19950;-62
2023/01/15 01:12:33;;;;;;;;;;;;;;;13.72;90.32;98801.13;5058126;28;20005;-62
2023/01/15 01:14:58;;;;;;;;;;;;;;;13.65;89.84;98792.63;5051016;28;20070;-62
2023/01/15 01:17:24;;;;;;;;;;;;;;;13.66;90.15;98785.47;5053835;28;19919;-62
2023/01/15 01:19:49;;;;;;;;;;;;;;;13.71;89.82;98794.03;5066210;28;19926;-62
2023/01/15 01:22:14;;;;;;;;;;;;;;;13.69;90.82;98788.78;5069945;28;19931;-62
2023/01/15 01:24:39;;;;;;;;;;;;;;;13.69;90.48;98783.44;5054208;28;19912;-62
2023/01/15 01:27:05;;;;;;;;;;;;;;;13.68;90.87;98795.09;5052160;28;19951;-62
2023/01/15 01:29:30;;;;;;;;;;;;;;;13.64;90.93;98782.06;5060340;28;19931;-62
2023/01/15 01:31:55;;;;;;;;;;;;;;;13.60;91.28;98792.06;5072037;28;19945;-62
2023/01/15 01:34:20;;;;;;;;;;;;;;;13.65;91.04;98781.94;5069928;28;19922;-62
2023/01/15 01:36:46;;;;;;;;;;;;;;;13.62;92.38;98779.47;5069562;28;19912;-61
2023/01/15 01:39:13;;;;;;;;;;;;;;;13.61;91.73;98774.19;5071907;28;19916;-62
2023/01/15 01:41:38;;;;;;;;;;;;;;;13.66;91.51;98774.75;5060927;28;19919;-61
2023/01/15 01:44:26;;;;;;;;;;;;;;;13.70;90.44;98774.50;5051913;28;19927;-62
2023/01/15 01:46:52;;;;;;;;;;;;;;;13.75;90.89;98768.84;5066289;28;19912;-62
2023/01/15 01:49:17;;;;;;;;;;;;;;;13.74;91.05;98772.47;5062028;28;20321;-61
2023/01/15 01:51:44;;;;;;;;;;;;;;;13.75;90.92;98774.19;5070691;28;19944;-62
2023/01/15 01:54:12;;;;;;;;;;;;;;;13.70;91.54;98765.59;5059870;28;19996;-62
2023/01/15 01:56:38;;;;;;;;;;;;;;;13.72;91.56;98764.53;5089397;28;19924;-62
2023/01/15 01:59:05;;;;;;;;;;;;;;;13.69;92.51;98771.91;5075971;28;19941;-62
2023/01/15 02:01:30;;;;;;;;;;;;;;;13.68;94.30;98767.50;5061617;28;19932;-62
2023/01/15 02:03:56;;;;;;;;;;;;;;;13.64;95.21;98760.69;5061122;28;19908;-62
2023/01/15 02:06:22;;;;;;;;;;;;;;;13.56;96.49;98753.13;5069162;28;19927;-62
2023/01/15 02:08:48;;;;;;;;;;;;;;;13.54;97.39;98756.88;5053163;28;19959;-62
2023/01/15 02:11:15;;;;;;;;;;;;;;;13.47;97.35;98751.06;5051306;28;19974;-63
2023/01/15 02:13:42;;;;;;;;;;;;;;;13.45;98.11;98744.09;5053613;28;19931;-63
2023/01/15 02:16:15;;;;;;;;;;;;;;;13.52;97.76;98734.75;5051420;28;19938;-63
2023/01/15 02:18:40;;;;;;;;;;;;;;;13.54;97.79;98744.34;5052123;28;19966;-63
2023/01/15 02:21:17;;;;;;;;;;;;;;;13.57;97.88;98746.84;5071307;28;19948;-63
2023/01/15 02:23:49;;;;;;;;;;;;;;;13.49;98.66;98734.94;5071360;28;19908;-63
2023/01/15 02:26:28;;;;;;;;;;;;;;;13.55;98.84;98745.22;5068407;28;19927;-63
2023/01/15 02:28:56;;;;;;;;;;;;;;;13.51;99.04;98739.22;5071272;28;19916;-63
2023/01/15 02:31:28;;;;;;;;;;;;;;;13.51;99.84;98725.03;5072030;28;19934;-63
2023/01/15 02:34:10;;;;;;;;;;;;;;;13.55;99.18;98721.19;5091363;28;20390;-62
2023/01/15 02:36:38;;;;;;;;;;;;;;;13.54;99.46;98724.81;5091417;28;19919;-62
2023/01/15 02:39:06;;;;;;;;;;;;;;;13.54;98.49;98716.81;5091332;28;19919;-62
2023/01/15 02:41:35;;;;;;;;;;;;;;;13.59;98.75;98704.00;5056542;28;19939;-62
2023/01/15 02:44:03;;;;;;;;;;;;;;;13.62;97.67;98693.13;5051285;28;19909;-62
2023/01/15 02:46:31;;;;;;;;;;;;;;;13.72;97.10;98704.91;5053680;28;19971;-62
2023/01/15 02:48:58;;;;;;;;;;;;;;;13.74;97.52;98713.69;5058256;28;20391;-62
2023/01/15 02:51:27;;;;;;;;;;;;;;;13.70;97.66;98712.16;5070938;28;19915;-62
2023/01/15 02:53:55;;;;;;;;;;;;;;;13.73;97.89;98715.50;5070945;28;20437;-62
2023/01/15 02:56:23;;;;;;;;;;;;;;;13.69;97.26;98711.28;5056071;28;19913;-63
2023/01/15 02:58:50;;;;;;;;;;;;;;;13.79;97.57;98706.22;5050991;28;19946;-63
2023/01/15 03:01:18;;;;;;;;;;;;;;;13.78;96.94;98705.34;5056340;28;20267;-62
2023/01/15 03:03:43;;;;;;;;;;;;;;;13.78;97.09;98709.84;5069531;28;19933;-62
2023/01/15 03:06:11;;;;;;;;;;;;;;;13.79;96.61;98715.09;5068990;28;19912;-62
2023/01/15 03:08:37;;;;;;;;;;;;;;;13.79;97.35;98712.41;5052022;28;20014;-62
2023/01/15 03:11:02;;;;;;;;;;;;;;;13.81;96.31;98709.63;5049879;28;20002;-62
2023/01/15 03:13:41;;;;;;;;;;;;;;;13.83;96.44;98702.38;5051862;28;19949;-62
2023/01/15 03:16:39;;;;;;;;;;;;;;;13.83;95.95;98707.72;5054221;28;19924;-62
2023/01/15 03:19:19;;;;;;;;;;;;;;;13.87;96.28;98709.25;5059148;28;19947;-62
2023/01/15 03:21:50;;;;;;;;;;;;;;;13.83;97.30;98702.38;5050773;28;20394;-62
2023/01/15 03:24:24;;;;;;;;;;;;;;;13.75;98.47;98692.22;5050538;28;20609;-62
2023/01/15 03:26:49;;;;;;;;;;;;;;;13.71;99.32;98697.84;5064862;28;19940;-62
2023/01/15 03:29:14;;;;;;;;;;;;;;;13.70;99.83;98702.34;5070792;28;19921;-62
2023/01/15 03:31:40;;;;;;;;;;;;;;;13.65;100.00;98687.56;5070755;28;19966;-62
2023/01/15 03:34:06;;;;;;;;;;;;;;;13.66;100.00;98691.94;5066231;28;19961;-62
2023/01/15 03:36:31;;;;;;;;;;;;;;;13.63;100.00;98695.69;5050533;28;20083;-62
2023/01/15 03:38:57;;;;;;;;;;;;;;;13.61;100.00;98697.59;5053216;28;19919;-62
2023/01/15 03:41:28;;;;;;;;;;;;;;;13.57;100.00;98698.75;5072004;28;19931;-62
2023/01/15 03:44:13;;;;;;;;;;;;;;;13.47;100.00;98711.00;5074098;28;19920;-62
2023/01/15 03:46:58;;;;;;;;;;;;;;;13.48;100.00;98738.56;5014456;28;19940;-62
2023/01/15 03:49:30;;;;;;;;;;;;;;;13.39;100.00;98725.81;5076437;28;19931;-62
2023/01/15 03:52:00;;;;;;;;;;;;;;;13.46;100.00;98768.03;5068202;28;19990;-62
2023/01/15 03:54:49;;;;;;;;;;;;;;;13.29;100.00;98780.75;5052235;28;20357;-63
2023/01/15 03:57:20;;;;;;;;;;;;;;;12.76;100.00;98792.91;5052881;28;19962;-64
2023/01/15 03:59:50;;;;;;;;;;;;;;;12.46;100.00;98805.44;5070665;28;19941;-64
2023/01/15 04:02:17;;;;;;;;;;;;;;;12.20;100.00;98818.56;5072423;28;19929;-64
2023/01/15 04:04:44;;;;;;;;;;;;;;;12.01;100.00;98828.59;5073393;28;19952;-64
2023/01/15 04:07:10;;;;;;;;;;;;;;;11.62;100.00;98832.50;5069450;28;19999;-64
2023/01/15 04:09:39;;;;;;;;;;;;;;;11.47;100.00;98828.03;5073980;28;20009;-64
2023/01/15 04:12:05;;;;;;;;;;;;;;;11.32;100.00;98843.97;5072800;28;20038;-63
2023/01/15 04:14:30;;;;;;;;;;;;;;;11.16;100.00;98838.63;5069450;28;19951;-63
2023/01/15 04:16:55;;;;;;;;;;;;;;;11.13;100.00;98838.78;5072865;28;19919;-63
2023/01/15 04:19:21;;;;;;;;;;;;;;;11.10;100.00;98864.69;5064236;28;19934;-64
2023/01/15 04:21:46;;;;;;;;;;;;;;;10.99;100.00;98870.56;5052624;28;19928;-64
2023/01/15 04:24:11;;;;;;;;;;;;;;;10.88;100.00;98869.41;5052554;28;19923;-63
2023/01/15 04:26:36;;;;;;;;;;;;;;;10.82;100.00;98861.75;5065864;28;19919;-63
2023/01/15 04:29:02;;;;;;;;;;;;;;;10.89;100.00;98860.50;5069062;28;19930;-63
2023/01/15 04:31:27;;;;;;;;;;;;;;;10.68;100.00;98877.56;5075963;28;19939;-63
2023/01/15 04:33:52;;;;;;;;;;;;;;;10.61;100.00;98867.25;5071377;28;19931;-63
2023/01/15 04:36:17;;;;;;;;;;;;;;;10.54;100.00;98865.00;5053196;28;19973;-63
2023/01/15 04:38:43;;;;;;;;;;;;;;;10.48;100.00;98867.94;5053053;28;19941;-63
2023/01/15 04:44:07;;;;;;;;;;;;;;;10.41;100.00;98882.50;5053319;28;19970;-63
2023/01/15 04:46:37;;;;;;;;;;;;;;;10.38;100.00;98894.13;5053185;28;20390;-63
2023/01/15 04:49:03;;;;;;;;;;;;;;;10.37;100.00;98888.88;5056352;28;19946;-63
2023/01/15 04:51:28;;;;;;;;;;;;;;;10.31;100.00;98900.66;5052658;28;19934;-63
2023/01/15 04:53:54;;;;;;;;;;;;;;;10.26;100.00;98888.56;5052817;28;20304;-63
2023/01/15 04:56:19;;;;;;;;;;;;;;;10.24;100.00;98898.41;5052781;28;19913;-63
2023/01/15 04:58:44;;;;;;;;;;;;;;;10.14;100.00;98898.00;5054921;28;19958;-63
2023/01/15 05:01:11;;;;;;;;;;;;;;;10.12;100.00;98894.53;5052869;28;20361;-63
2023/01/15 05:03:36;;;;;;;;;;;;;;;10.05;100.00;98909.00;5059601;28;20379;-63
2023/01/15 05:06:02;;;;;;;;;;;;;;;9.96;100.00;98893.53;5072608;28;19940;-63
2023/01/15 05:08:27;;;;;;;;;;;;;;;9.96;100.00;98898.84;5061346;28;20350;-62
2023/01/15 05:10:52;;;;;;;;;;;;;;;9.93;100.00;98914.06;5052718;28;20403;-62
2023/01/15 05:13:18;;;;;;;;;;;;;;;9.94;100.00;98919.31;5058273;28;20033;-63
2023/01/15 05:15:45;;;;;;;;;;;;;;;9.88;100.00;98911.63;5072658;28;19927;-62
2023/01/15 05:18:13;;;;;;;;;;;;;;;9.81;100.00;98910.19;5071763;28;19912;-63
2023/01/15 05:20:39;;;;;;;;;;;;;;;9.79;100.00;98919.16;5069087;28;20384;-62
2023/01/15 05:23:04;;;;;;;;;;;;;;;9.71;100.00;98924.84;5072148;28;19938;-62
2023/01/15 05:25:29;;;;;;;;;;;;;;;9.70;100.00;98928.44;5062609;28;19912;-62
2023/01/15 05:27:55;;;;;;;;;;;;;;;9.68;100.00;98919.66;5051613;28;19913;-62
2023/01/15 05:30:20;;;;;;;;;;;;;;;9.68;100.00;98909.06;5052400;28;19913;-62
2023/01/15 05:32:45;;;;;;;;;;;;;;;9.69;100.00;98897.47;5071013;28;19982;-62
2023/01/15 05:35:10;;;;;;;;;;;;;;;9.60;100.00;98897.94;5070888;28;19909;-62
2023/01/15 05:37:36;;;;;;;;;;;;;;;9.48;100.00;98909.09;5060383;28;20378;-62
2023/01/15 05:40:01;;;;;;;;;;;;;;;9.47;100.00;98902.09;5050833;28;19943;-62
2023/01/15 05:42:26;;;;;;;;;;;;;;;9.49;100.00;98912.63;5059716;28;19927;-62
2023/01/15 05:44:52;;;;;;;;;;;;;;;9.51;100.00;98914.25;5053069;28;19937;-62
2023/01/15 05:47:17;;;;;;;;;;;;;;;9.51;100.00;98911.63;5073445;28;19929;-62
2023/01/15 05:49:42;;;;;;;;;;;;;;;9.55;100.00;98918.50;5060446;28;19912;-62
2023/01/15 05:52:07;;;;;;;;;;;;;;;9.55;100.00;98926.47;5051659;28;19947;-62
2023/01/15 05:54:33;;;;;;;;;;;;;;;9.51;100.00;98943.47;5061308;28;19908;-62
2023/01/15 05:57:00;;;;;;;;;;;;;;;9.49;100.00;98933.88;5071330;28;19960;-62
2023/01/15 05:59:26;;;;;;;;;;;;;;;9.51;100.00;98943.47;5064581;28;19926;-62
2023/01/15 06:01:51;;;;;;;;;;;;;;;9.45;100.00;98953.50;5059036;28;20310;-62
2023/01/15 06:04:19;;;;;;;;;;;;;;;9.48;100.00;98959.53;5064014;28;19922;-62
2023/01/15 06:06:45;;;;;;;;;;;;;;;9.46;100.00;98968.47;5068142;28;19931;-62
2023/01/15 06:09:10;;;;;;;;;;;;;;;9.44;100.00;98970.38;5051375;28;19945;-62
2023/01/15 06:11:36;;;;;;;;;;;;;;;9.37;100.00;98976.88;5051600;28;20232;-62
2023/01/15 06:14:01;;;;;;;;;;;;;;;9.34;100.00;98977.84;5065628;28;20053;-62
2023/01/15 06:16:27;;;;;;;;;;;;;;;9.29;100.00;98979.88;5071595;28;19943;-62
2023/01/15 06:18:52;;;;;;;;;;;;;;;9.28;100.00;98975.47;5067469;28;19937;-62
2023/01/15 06:21:17;;;;;;;;;;;;;;;9.23;100.00;98985.41;5050415;28;19930;-62
2023/01/15 06:23:43;;;;;;;;;;;;;;;9.25;100.00;99004.78;5050216;28;20303;-62
2023/01/15 06:26:13;;;;;;;;;;;;;;;9.25;100.00;99015.41;5032274;28;20405;-63
2023/01/15 06:28:38;;;;;;;;;;;;;;;9.18;100.00;99019.25;5052769;28;19935;-63
2023/01/15 06:31:05;;;;;;;;;;;;;;;9.21;100.00;99041.22;5051888;28;19947;-63
2023/01/15 06:33:30;;;;;;;;;;;;;;;9.23;100.00;99051.75;5063129;28;19945;-63
2023/01/15 06:35:55;;;;;;;;;;;;;;;9.22;100.00;99058.00;5069277;28;19941;-63
2023/01/15 06:38:20;;;;;;;;;;;;;;;9.22;100.00;99061.50;5070224;28;20270;-63
2023/01/15 06:40:46;;;;;;;;;;;;;;;9.15;100.00;99056.53;5066138;28;19931;-62
2023/01/15 06:48:39;;;;;;;;;;;;;;;9.12;100.00;99085.84;5056506;28;19929;-62
2023/01/15 06:51:04;;;;;;;;;;;;;;;9.08;100.00;99092.19;5064868;28;19932;-62
2023/01/15 06:53:29;;;;;;;;;;;;;;;9.03;100.00;99083.56;5051130;28;20402;-62
2023/01/15 06:55:55;;;;;;;;;;;;;;;8.93;100.00;99088.38;5050428;28;20020;-62
2023/01/15 06:58:21;;;;;;;;;;;;;;;8.91;100.00;99095.53;5052263;28;20309;-62
2023/01/15 07:00:52;;;;;;;;;;;;;;;8.87;100.00;99108.97;5051505;28;19916;-62
2023/01/15 07:03:18;;;;;;;;;;;;;;;8.85;100.00;99113.47;5066207;28;19976;-62
2023/01/15 07:05:43;;;;;;;;;;;;;;;8.80;100.00;99124.25;5070154;28;19946;-62
2023/01/15 07:08:08;;;;;;;;;;;;;;;8.81;100.00;99112.72;5070214;28;20354;-62
2023/01/15 07:10:34;;;;;;;;;;;;;;;8.83;100.00;99110.03;5070360;28;19947;-62
2023/01/15 07:12:59;;;;;;;;;;;;;;;8.81;100.00;99119.84;5068242;28;19942;-62
2023/01/15 07:15:25;;;;;;;;;;;;;;;8.83;100.00;99118.84;5074633;28;20005;-62
2023/01/15 07:17:53;;;;;;;;;;;;;;;8.58;100.00;99074.81;5070577;28;19928;-62
2023/01/15 07:20:20;;;;;;;;;;;;;;;8.84;100.00;99117.06;5058487;28;19946;-62
2023/01/15 07:22:47;;;;;;;;;;;;;;;8.79;100.00;99116.38;5054757;28;20046;-63
2023/01/15 07:25:12;;;;;;;;;;;;;;;8.75;100.00;99149.22;5063253;28;19930;-62
2023/01/15 07:27:38;;;;;;;;;;;;;;;8.83;100.00;99155.13;5074415;28;20299;-63
2023/01/15 07:30:03;;;;;;;;;;;;;;;8.91;100.00;99166.28;5074546;28;19929;-63
2023/01/15 07:32:28;;;;;;;;;;;;;;;8.87;100.00;99169.97;5074263;28;19942;-62
2023/01/15 07:34:53;;;;;;;;;;;;;;;8.84;100.00;99178.03;5058021;28;19916;-63
2023/01/15 07:37:19;;;;;;;;;;;;;;;8.82;100.00;99191.38;5064696;28;19943;-63
2023/01/15 07:39:44;;;;;;;;;;;;;;;8.78;100.00;99188.91;5067573;28;19926;-62
2023/01/15 07:50:22;;;;;;;;;;;;;;;8.75;100.00;99210.19;5056243;28;19930;-63
2023/01/15 07:52:48;;;;;;;;;;;;;;;8.59;100.00;99203.75;5053934;28;20027;-62
2023/01/15 07:55:13;;;;;;;;;;;;;;;8.58;100.00;99217.94;5053837;28;20047;-62
2023/01/15 07:57:40;;;;;;;;;;;;;;;8.64;100.00;99220.34;5056161;28;20011;-62
2023/01/15 08:00:06;;;;;;;;;;;;;;;8.59;100.00;99214.34;5063142;28;19927;-62
2023/01/15 08:02:32;;;;;;;;;;;;;;;8.64;100.00;99223.00;5036371;28;19937;-63
2023/01/15 08:04:57;;;;;;;;;;;;;;;8.62;100.00;99222.19;5073246;28;19923;-62
2023/01/15 08:07:23;;;;;;;;;;;;;;;8.52;100.00;99226.97;5073898;28;19969;-62
2023/01/15 08:09:48;;;;;;;;;;;;;;;8.55;100.00;99249.88;5073792;28;19908;-62
2023/01/15 08:15:12;;;;;;;;;;;;;;;8.59;100.00;99247.03;5053564;28;19965;-62
2023/01/15 08:17:39;;;;;;;;;;;;;;;8.52;100.00;99253.47;5053568;28;19979;-62
2023/01/15 08:20:05;;;;;;;;;;;;;;;8.48;100.00;99266.91;5066057;28;19927;-62
2023/01/15 08:22:31;;;;;;;;;;;;;;;8.49;100.00;99256.25;5070858;28;20507;-62
2023/01/15 08:24:56;;;;;;;;;;;;;;;8.50;100.00;99254.47;5066359;28;19927;-62
2023/01/15 08:27:21;;;;;;;;;;;;;;;8.49;100.00;99265.97;5069846;28;20004;-62
2023/01/15 08:29:47;;;;;;;;;;;;;;;8.53;100.00;99270.25;5071011;28;19934;-62
2023/01/15 08:32:12;;;;;;;;;;;;;;;8.55;100.00;99260.47;5072907;28;19940;-62
2023/01/15 08:34:38;;;;;;;;;;;;;;;8.48;100.00;99258.94;5064708;28;19952;-62
2023/01/15 08:37:03;;;;;;;;;;;;;;;8.42;100.00;99259.19;5053358;28;19945;-62
2023/01/15 08:39:28;;;;;;;;;;;;;;;8.45;100.00;99259.06;5054428;28;19923;-62
2023/01/15 08:41:54;;;;;;;;;;;;;;;8.51;100.00;99270.31;5072492;28;20021;-62
2023/01/15 08:44:20;;;;;;;;;;;;;;;8.55;100.00;99273.72;5090739;28;19935;-62
2023/01/15 08:46:47;;;;;;;;;;;;;;;8.56;100.00;99283.38;5092155;28;19912;-63
2023/01/15 08:49:12;;;;;;;;;;;;;;;8.58;100.00;99284.22;5073952;28;20584;-63
2023/01/15 08:51:38;;;;;;;;;;;;;;;8.63;100.00;99284.91;5049861;28;19920;-62
2023/01/15 08:54:03;;;;;;;;;;;;;;;8.66;100.00;99284.78;5050108;28;19955;-62
2023/01/15 08:56:28;;;;;;;;;;;;;;;8.66;100.00;99295.41;5052253;28;20494;-63
2023/01/15 08:58:53;;;;;;;;;;;;;;;8.70;100.00;99308.47;5050651;28;19958;-62
2023/01/15 09:01:19;;;;;;;;;;;;;;;8.71;100.00;99314.66;5057698;28;19930;-63
2023/01/15 09:03:44;;;;;;;;;;;;;;;8.70;100.00;99329.69;5071368;28;19940;-63
2023/01/15 09:06:10;;;;;;;;;;;;;;;8.67;100.00;99327.16;5072253;28;19965;-63
2023/01/15 09:08:35;;;;;;;;;;;;;;;8.62;100.00;99336.16;5072649;28;19915;-62
2023/01/15 09:11:01;;;;;;;;;;;;;;;8.57;100.00;99343.41;5060596;28;19923;-63
2023/01/15 09:13:27;;;;;;;;;;;;;;;8.52;100.00;99334.75;5052341;28;20364;-63
2023/01/15 09:15:52;;;;;;;;;;;;;;;8.51;100.00;99333.03;5054701;28;19962;-63
2023/01/15 09:18:19;;;;;;;;;;;;;;;8.54;100.00;99348.84;5054305;28;19924;-63
2023/01/15 09:20:47;;;;;;;;;;;;;;;8.47;100.00;99342.88;5072105;28;19924;-63
2023/01/15 09:23:13;;;;;;;;;;;;;;;8.46;100.00;99340.28;5069092;28;19937;-63
2023/01/15 09:25:38;;;;;;;;;;;;;;;8.46;100.00;99361.50;5071668;28;19936;-63
2023/01/15 09:28:04;;;;;;;;;;;;;;;8.53;100.00;99360.38;5054743;28;20685;-63
2023/01/15 09:30:29;;;;;;;;;;;;;;;8.59;100.00;99363.66;5072127;28;19976;-63
2023/01/15 09:32:55;;;;;;;;;;;;;;;8.55;100.00;99362.03;5071926;28;20481;-63
2023/01/15 09:35:21;;;;;;;;;;;;;;;8.60;100.00;99372.50;5071530;28;19993;-63
2023/01/15 09:37:50;;;;;;;;;;;;;;;8.64;100.00;99382.06;5071491;28;20033;-63
2023/01/15 09:40:34;;;;;;;;;;;;;;;8.57;100.00;99380.53;5092244;28;20004;-63
2023/01/15 09:43:03;;;;;;;;;;;;;;;8.54;100.00;99391.25;5078945;28;19913;-63
2023/01/15 09:45:49;;;;;;;;;;;;;;;8.55;100.00;99393.00;5055494;28;20370;-63
2023/01/15 09:48:17;;;;;;;;;;;;;;;8.55;100.00;99399.13;5069817;28;20276;-63
2023/01/15 09:51:02;;;;;;;;;;;;;;;8.57;100.00;99404.38;5063021;28;19947;-63
2023/01/15 09:53:46;;;;;;;;;;;;;;;8.62;100.00;99427.19;5071689;28;19942;-63
2023/01/15 09:56:28;;;;;;;;;;;;;;;8.63;100.00;99449.25;5056168;28;19982;-63
2023/01/15 09:58:54;;;;;;;;;;;;;;;8.62;100.00;99458.09;5066549;28;19972;-63
2023/01/15 10:01:24;;;;;;;;;;;;;;;8.37;100.00;99473.94;5063259;28;19991;-63
2023/01/15 10:03:59;;;;;;;;;;;;;;;7.97;100.00;99490.19;5060149;28;19931;-63
2023/01/15 10:06:27;;;;;;;;;;;;;;;7.67;100.00;99482.31;5069340;28;19953;-63
2023/01/15 10:09:03;;;;;;;;;;;;;;;7.52;100.00;99488.94;5052605;28;19984;-62
2023/01/15 10:14:27;;;;;;;;;;;;;;;7.30;100.00;99489.56;5051267;28;20722;-62
2023/01/15 10:16:52;;;;;;;;;;;;;;;7.19;100.00;99487.22;5053491;28;19977;-62
2023/01/15 10:19:18;;;;;;;;;;;;;;;7.21;100.00;99490.72;5061538;28;19940;-62
2023/01/15 10:21:53;;;;;;;;;;;;;;;7.19;100.00;99505.75;5067078;28;20303;-62
2023/01/15 10:24:37;;;;;;;;;;;;;;;7.25;100.00;99508.22;5071201;28;19934;-62
2023/01/15 10:27:10;;;;;;;;;;;;;;;7.25;100.00;99518.78;5071296;28;20379;-62
2023/01/15 10:29:41;;;;;;;;;;;;;;;7.17;100.00;99531.34;5071011;28;19920;-62
2023/01/15 10:32:19;;;;;;;;;;;;;;;7.09;100.00;99533.34;5085736;28;20013;-62
2023/01/15 10:34:58;;;;;;;;;;;;;;;6.89;100.00;99488.03;5091582;28;19930;-62
2023/01/15 10:37:26;;;;;;;;;;;;;;;7.10;100.00;99537.72;5078610;28;20302;-62
2023/01/15 10:39:54;;;;;;;;;;;;;;;7.07;100.00;99540.44;5071165;28;19947;-62
2023/01/15 10:42:31;;;;;;;;;;;;;;;7.07;100.00;99545.72;5063919;28;19983;-62
2023/01/15 10:44:57;;;;;;;;;;;;;;;6.92;100.00;99546.13;5062895;28;20296;-62
2023/01/15 10:47:28;;;;;;;;;;;;;;;6.88;100.00;99539.19;5069478;28;19976;-62
2023/01/15 10:49:53;;;;;;;;;;;;;;;6.92;100.00;99546.13;5053216;28;19938;-62
2023/01/15 10:52:18;;;;;;;;;;;;;;;6.88;100.00;99539.19;5054374;28;19941;-62
2023/01/15 10:54:46;;;;;;;;;;;;;;;6.90;100.00;99547.06;5056889;28;20400;-62
2023/01/15 10:57:16;;;;;;;;;;;;;;;6.92;100.00;99545.28;5054234;28;19956;-62
2023/01/15 10:59:55;;;;;;;;;;;;;;;6.96;100.00;99544.28;5054180;28;19909;-63
2023/01/15 11:02:24;;;;;;;;;;;;;;;6.98;100.00;99545.09;5053911;28;20276;-62
2023/01/15 11:04:49;;;;;;;;;;;;;;;6.88;100.00;99533.03;5072452;28;19912;-62
2023/01/15 11:07:15;;;;;;;;;;;;;;;7.05;100.00;99536.97;5075028;28;20237;-62
2023/01/15 11:09:41;;;;;;;;;;;;;;;6.98;100.00;99530.13;5063906;28;20458;-62
2023/01/15 11:20:41;;;;;;;;;;;;;;;6.82;99.95;99510.25;5054229;28;19922;-62
2023/01/15 11:23:08;;;;;;;;;;;;;;;6.91;100.00;99510.03;5055067;28;19933;-62
2023/01/15 11:25:34;;;;;;;;;;;;;;;6.96;100.00;99505.50;5056944;28;19927;-62
2023/01/15 11:28:01;;;;;;;;;;;;;;;6.97;99.82;99504.56;5053798;28;19999;-62
2023/01/15 11:30:27;;;;;;;;;;;;;;;7.14;99.47;99499.72;5056067;28;19919;-62
2023/01/15 11:32:56;;;;;;;;;;;;;;;7.15;98.76;99497.94;5054037;28;19917;-62
2023/01/15 11:35:22;;;;;;;;;;;;;;;7.14;98.93;99502.34;5054696;28;19973;-62
2023/01/15 11:37:47;;;;;;;;;;;;;;;7.23;98.23;99510.03;5056206;28;19923;-62
2023/01/15 11:40:22;;;;;;;;;;;;;;;7.24;97.76;99508.25;5054212;28;20708;-62
2023/01/15 11:51:08;;;;;;;;;;;;;;;7.46;97.04;99533.22;5054426;28;19926;-62
2023/01/15 11:53:37;;;;;;;;;;;;;;;7.56;97.16;99535.53;5054010;28;20023;-62
2023/01/15 11:56:05;;;;;;;;;;;;;;;7.61;97.59;99544.22;5058092;28;20018;-62
2023/01/15 11:58:32;;;;;;;;;;;;;;;7.62;96.75;99540.69;5073177;28;19997;-62
2023/01/15 12:00:58;;;;;;;;;;;;;;;7.70;96.70;99537.81;5070140;28;20376;-62
2023/01/15 12:03:26;;;;;;;;;;;;;;;7.79;96.89;99538.41;5073470;28;19924;-62
2023/01/15 12:05:56;;;;;;;;;;;;;;;7.83;96.83;99529.47;5069484;28;20325;-62
2023/01/15 12:08:30;;;;;;;;;;;;;;;7.95;96.85;99528.25;5066104;28;19929;-62
2023/01/15 12:11:15;;;;;;;;;;;;;;;8.01;96.71;99515.69;5074179;28;19976;-62
2023/01/15 12:13:51;;;;;;;;;;;;;;;8.02;96.07;99522.72;5070272;28;19962;-62
2023/01/15 12:16:16;;;;;;;;;;;;;;;8.14;96.50;99521.47;5053353;28;19923;-62
2023/01/15 12:18:47;;;;;;;;;;;;;;;8.26;96.16;99525.56;5058112;28;19930;-62
2023/01/15 12:21:22;;;;;;;;;;;;;;;8.07;94.01;99534.97;5057234;28;20414;-62
2023/01/15 12:23:53;;;;;;;;;;;;;;;8.09;94.88;99527.84;5052671;28;19948;-62
2023/01/15 12:26:38;;;;;;;;;;;;;;;8.16;95.08;99529.38;5055262;28;20053;-62
2023/01/15 12:29:16;;;;;;;;;;;;;;;8.25;95.39;99529.13;5041285;28;19924;-62
2023/01/15 12:32:07;;;;;;;;;;;;;;;8.67;95.48;99519.78;5066212;28;20318;-62
2023/01/15 12:34:32;;;;;;;;;;;;;;;9.56;92.60;99506.91;5067885;28;20022;-62
2023/01/15 12:37:04;;;;;;;;;;;;;;;9.46;87.54;99502.00;5065086;28;20004;-62
2023/01/15 12:39:29;;;;;;;;;;;;;;;9.51;88.16;99508.88;5073086;28;19923;-62
2023/01/15 12:45:06;;;;;;;;;;;;;;;9.69;87.73;99518.81;5053477;28;19932;-62
2023/01/15 12:47:47;;;;;;;;;;;;;;;9.76;85.79;99517.69;5055543;28;19931;-62
2023/01/15 12:50:15;;;;;;;;;;;;;;;9.62;85.36;99509.34;5070857;28;20413;-62
2023/01/15 12:52:44;;;;;;;;;;;;;;;9.65;85.65;99506.59;5072801;28;19939;-62
2023/01/15 12:55:19;;;;;;;;;;;;;;;9.78;86.00;99509.66;5072807;28;19929;-62
2023/01/15 12:57:47;;;;;;;;;;;;;;;9.74;85.07;99514.22;5068909;28;20364;-62
2023/01/15 13:00:32;;;;;;;;;;;;;;;9.66;83.89;99510.97;5072742;28;19909;-61
2023/01/15 13:03:01;;;;;;;;;;;;;;;9.77;85.14;99523.88;5072100;28;19915;-62
2023/01/15 13:05:26;;;;;;;;;;;;;;;9.72;84.32;99509.91;5067766;28;20065;-62
2023/01/15 13:07:57;;;;;;;;;;;;;;;9.77;83.58;99514.09;5052408;28;20055;-62
2023/01/15 13:10:25;;;;;;;;;;;;;;;9.90;83.70;99519.81;5051895;28;20279;-62
2023/01/15 13:12:51;;;;;;;;;;;;;;;9.93;82.03;99512.63;5053798;28;19955;-62
2023/01/15 13:15:18;;;;;;;;;;;;;;;9.80;81.76;99500.69;5063841;28;19921;-62
2023/01/15 13:17:56;;;;;;;;;;;;;;;9.71;81.02;99509.03;5067548;28;19981;-62
2023/01/15 13:20:35;;;;;;;;;;;;;;;9.68;81.66;99498.50;5070896;28;19915;-62
2023/01/15 13:23:20;;;;;;;;;;;;;;;9.74;82.50;99508.03;5071244;28;19945;-62
2023/01/15 13:25:48;;;;;;;;;;;;;;;9.75;80.82;99505.31;5036220;28;20287;-62
2023/01/15 13:28:43;;;;;;;;;;;;;;;9.82;79.86;99505.97;5051331;28;19972;-62
2023/01/15 13:31:20;;;;;;;;;;;;;;;9.62;79.92;99504.03;4997611;28;20014;-62
2023/01/15 13:33:48;;;;;;;;;;;;;;;9.48;80.24;99503.69;5070535;28;20383;-62
2023/01/15 13:36:13;;;;;;;;;;;;;;;9.28;80.98;99493.78;5058699;28;19931;-62
2023/01/15 13:38:41;;;;;;;;;;;;;;;9.20;80.38;99510.91;5051897;28;19935;-62
2023/01/15 13:41:07;;;;;;;;;;;;;;;9.18;81.44;99507.41;5056307;28;19947;-62